sensor_id;sensor_type;location;lat;lon;timestamp;P1;durP1;ratioP1;P2;durP2;ratioP2
7583;SDS011;3833;41.764;26.204;2023-03-21T00:00:13;9.27;;;6.90;;
7583;SDS011;3833;41.764;26.204;2023-03-21T00:02:41;6.97;;;6.00;;
7583;SDS011;3833;41.764;26.204;2023-03-21T00:05:08;6.87;;;5.40;;
7583;SDS011;3833;41.764;26.204;2023-03-21T00:07:35;8.73;;;7.47;;
7583;SDS011;3833;41.764;26.204;2023-03-21T00:10:02;8.63;;;7.93;;
7583;SDS011;3833;41.764;26.204;2023-03-21T00:12:30;7.33;;;6.63;;
7583;SDS011;3833;41.764;26.204;2023-03-21T00:14:56;8.63;;;6.90;;
7583;SDS011;3833;41.764;26.204;2023-03-21T00:17:28;6.27;;;5.53;;
7583;SDS011;3833;41.764;26.204;2023-03-21T00:19:58;7.97;;;7.23;;
7583;SDS011;3833;41.764;26.204;2023-03-21T00:22:25;10.57;;;8.20;;
7583;SDS011;3833;41.764;26.204;2023-03-21T00:24:52;9.10;;;6.53;;
7583;SDS011;3833;41.764;26.204;2023-03-21T00:27:19;7.17;;;6.47;;
7583;SDS011;3833;41.764;26.204;2023-03-21T00:29:46;6.83;;;5.43;;
7583;SDS011;3833;41.764;26.204;2023-03-21T00:32:14;6.33;;;5.70;;
7583;SDS011;3833;41.764;26.204;2023-03-21T00:34:41;7.73;;;7.03;;
7583;SDS011;3833;41.764;26.204;2023-03-21T00:37:09;9.17;;;8.27;;
7583;SDS011;3833;41.764;26.204;2023-03-21T00:39:38;7.73;;;6.40;;
7583;SDS011;3833;41.764;26.204;2023-03-21T00:42:05;6.73;;;6.13;;
7583;SDS011;3833;41.764;26.204;2023-03-21T00:44:32;8.20;;;5.77;;
7583;SDS011;3833;41.764;26.204;2023-03-21T00:47:00;7.37;;;6.67;;
7583;SDS011;3833;41.764;26.204;2023-03-21T00:49:27;8.37;;;7.67;;
7583;SDS011;3833;41.764;26.204;2023-03-21T00:51:57;7.27;;;6.57;;
7583;SDS011;3833;41.764;26.204;2023-03-21T00:54:26;7.17;;;6.47;;
7583;SDS011;3833;41.764;26.204;2023-03-21T00:56:52;6.90;;;6.07;;
7583;SDS011;3833;41.764;26.204;2023-03-21T00:59:19;8.97;;;7.33;;
7583;SDS011;3833;41.764;26.204;2023-03-21T01:01:46;9.83;;;7.23;;
7583;SDS011;3833;41.764;26.204;2023-03-21T01:04:13;11.83;;;6.70;;
7583;SDS011;3833;41.764;26.204;2023-03-21T01:06:41;7.93;;;6.90;;
7583;SDS011;3833;41.764;26.204;2023-03-21T01:09:11;8.07;;;5.43;;
7583;SDS011;3833;41.764;26.204;2023-03-21T01:11:42;6.47;;;5.87;;
7583;SDS011;3833;41.764;26.204;2023-03-21T01:14:09;8.27;;;7.47;;
7583;SDS011;3833;41.764;26.204;2023-03-21T01:16:37;8.67;;;7.17;;
7583;SDS011;3833;41.764;26.204;2023-03-21T01:19:05;7.80;;;7.00;;
7583;SDS011;3833;41.764;26.204;2023-03-21T01:21:33;9.77;;;6.07;;
7583;SDS011;3833;41.764;26.204;2023-03-21T01:24:00;7.10;;;6.40;;
7583;SDS011;3833;41.764;26.204;2023-03-21T01:26:27;7.40;;;6.70;;
7583;SDS011;3833;41.764;26.204;2023-03-21T01:28:56;11.57;;;7.83;;
7583;SDS011;3833;41.764;26.204;2023-03-21T01:31:22;7.73;;;7.03;;
7583;SDS011;3833;41.764;26.204;2023-03-21T01:33:49;7.10;;;6.40;;
7583;SDS011;3833;41.764;26.204;2023-03-21T01:36:17;8.77;;;6.57;;
7583;SDS011;3833;41.764;26.204;2023-03-21T01:38:46;7.40;;;6.70;;
7583;SDS011;3833;41.764;26.204;2023-03-21T01:41:16;9.50;;;7.20;;
7583;SDS011;3833;41.764;26.204;2023-03-21T01:43:46;7.90;;;7.10;;
7583;SDS011;3833;41.764;26.204;2023-03-21T01:46:21;6.93;;;5.90;;
7583;SDS011;3833;41.764;26.204;2023-03-21T01:48:55;8.63;;;7.03;;
7583;SDS011;3833;41.764;26.204;2023-03-21T01:51:25;8.23;;;7.43;;
7583;SDS011;3833;41.764;26.204;2023-03-21T01:53:53;8.80;;;7.90;;
7583;SDS011;3833;41.764;26.204;2023-03-21T01:56:22;7.60;;;6.27;;
7583;SDS011;3833;41.764;26.204;2023-03-21T01:58:51;7.67;;;6.97;;
7583;SDS011;3833;41.764;26.204;2023-03-21T02:01:22;6.90;;;6.20;;
7583;SDS011;3833;41.764;26.204;2023-03-21T02:03:49;7.10;;;6.50;;
7583;SDS011;3833;41.764;26.204;2023-03-21T02:06:24;8.47;;;7.07;;
7583;SDS011;3833;41.764;26.204;2023-03-21T02:08:58;6.97;;;5.70;;
7583;SDS011;3833;41.764;26.204;2023-03-21T02:11:28;7.90;;;7.00;;
7583;SDS011;3833;41.764;26.204;2023-03-21T02:13:56;6.83;;;6.07;;
7583;SDS011;3833;41.764;26.204;2023-03-21T02:16:27;7.47;;;6.63;;
7583;SDS011;3833;41.764;26.204;2023-03-21T02:19:05;10.13;;;6.97;;
7583;SDS011;3833;41.764;26.204;2023-03-21T02:21:50;8.87;;;7.00;;
7583;SDS011;3833;41.764;26.204;2023-03-21T02:27:45;8.67;;;6.80;;
7583;SDS011;3833;41.764;26.204;2023-03-21T02:30:20;9.37;;;7.33;;
7583;SDS011;3833;41.764;26.204;2023-03-21T02:33:13;8.07;;;6.93;;
7583;SDS011;3833;41.764;26.204;2023-03-21T02:36:08;9.33;;;6.90;;
7583;SDS011;3833;41.764;26.204;2023-03-21T02:38:53;10.57;;;7.60;;
7583;SDS011;3833;41.764;26.204;2023-03-21T02:41:25;8.73;;;7.47;;
7583;SDS011;3833;41.764;26.204;2023-03-21T02:44:01;8.17;;;7.33;;
7583;SDS011;3833;41.764;26.204;2023-03-21T02:46:35;8.70;;;7.80;;
7583;SDS011;3833;41.764;26.204;2023-03-21T02:49:08;8.30;;;7.10;;
7583;SDS011;3833;41.764;26.204;2023-03-21T02:51:39;7.80;;;7.00;;
7583;SDS011;3833;41.764;26.204;2023-03-21T02:54:10;7.03;;;6.33;;
7583;SDS011;3833;41.764;26.204;2023-03-21T02:56:40;8.63;;;6.93;;
7583;SDS011;3833;41.764;26.204;2023-03-21T02:59:08;8.10;;;7.30;;
7583;SDS011;3833;41.764;26.204;2023-03-21T03:01:36;8.03;;;6.60;;
7583;SDS011;3833;41.764;26.204;2023-03-21T03:04:03;6.93;;;6.23;;
7583;SDS011;3833;41.764;26.204;2023-03-21T03:06:30;7.97;;;7.03;;
7583;SDS011;3833;41.764;26.204;2023-03-21T03:09:15;7.80;;;6.93;;
7583;SDS011;3833;41.764;26.204;2023-03-21T03:11:52;9.83;;;7.43;;
7583;SDS011;3833;41.764;26.204;2023-03-21T03:14:31;8.77;;;6.80;;
7583;SDS011;3833;41.764;26.204;2023-03-21T03:17:11;9.13;;;6.50;;
7583;SDS011;3833;41.764;26.204;2023-03-21T03:19:49;6.97;;;6.10;;
7583;SDS011;3833;41.764;26.204;2023-03-21T03:22:25;7.23;;;6.27;;
7583;SDS011;3833;41.764;26.204;2023-03-21T03:25:02;7.43;;;6.67;;
7583;SDS011;3833;41.764;26.204;2023-03-21T03:27:35;7.97;;;6.93;;
7583;SDS011;3833;41.764;26.204;2023-03-21T03:30:07;8.77;;;6.43;;
7583;SDS011;3833;41.764;26.204;2023-03-21T03:32:37;6.43;;;5.80;;
7583;SDS011;3833;41.764;26.204;2023-03-21T03:35:09;8.30;;;6.87;;
7583;SDS011;3833;41.764;26.204;2023-03-21T03:37:39;7.53;;;6.73;;
7583;SDS011;3833;41.764;26.204;2023-03-21T03:40:09;11.07;;;6.90;;
7583;SDS011;3833;41.764;26.204;2023-03-21T03:42:39;8.23;;;6.97;;
7583;SDS011;3833;41.764;26.204;2023-03-21T03:45:10;10.67;;;6.87;;
7583;SDS011;3833;41.764;26.204;2023-03-21T03:47:38;7.87;;;6.00;;
7583;SDS011;3833;41.764;26.204;2023-03-21T03:50:08;10.57;;;7.30;;
7583;SDS011;3833;41.764;26.204;2023-03-21T03:52:40;11.30;;;8.10;;
7583;SDS011;3833;41.764;26.204;2023-03-21T03:55:13;8.37;;;6.93;;
7583;SDS011;3833;41.764;26.204;2023-03-21T03:57:42;9.50;;;7.07;;
7583;SDS011;3833;41.764;26.204;2023-03-21T04:00:10;7.97;;;6.60;;
7583;SDS011;3833;41.764;26.204;2023-03-21T04:02:39;9.83;;;7.50;;
7583;SDS011;3833;41.764;26.204;2023-03-21T04:05:06;10.10;;;8.10;;
7583;SDS011;3833;41.764;26.204;2023-03-21T04:07:34;8.87;;;7.30;;
7583;SDS011;3833;41.764;26.204;2023-03-21T04:10:01;8.27;;;7.30;;
7583;SDS011;3833;41.764;26.204;2023-03-21T04:12:30;8.80;;;7.30;;
7583;SDS011;3833;41.764;26.204;2023-03-21T04:14:57;7.60;;;6.77;;
7583;SDS011;3833;41.764;26.204;2023-03-21T04:17:24;8.73;;;6.80;;
7583;SDS011;3833;41.764;26.204;2023-03-21T04:19:51;8.87;;;7.57;;
7583;SDS011;3833;41.764;26.204;2023-03-21T04:22:17;7.13;;;6.43;;
7583;SDS011;3833;41.764;26.204;2023-03-21T04:24:45;7.27;;;6.30;;
7583;SDS011;3833;41.764;26.204;2023-03-21T04:27:11;8.47;;;6.77;;
7583;SDS011;3833;41.764;26.204;2023-03-21T04:29:40;11.97;;;6.83;;
7583;SDS011;3833;41.764;26.204;2023-03-21T04:32:07;8.80;;;6.67;;
7583;SDS011;3833;41.764;26.204;2023-03-21T04:34:40;7.63;;;6.50;;
7583;SDS011;3833;41.764;26.204;2023-03-21T04:37:07;10.20;;;6.53;;
7583;SDS011;3833;41.764;26.204;2023-03-21T04:39:36;8.00;;;5.50;;
7583;SDS011;3833;41.764;26.204;2023-03-21T04:42:03;7.53;;;5.87;;
7583;SDS011;3833;41.764;26.204;2023-03-21T04:44:30;9.90;;;7.40;;
7583;SDS011;3833;41.764;26.204;2023-03-21T04:46:59;7.47;;;6.57;;
7583;SDS011;3833;41.764;26.204;2023-03-21T04:49:25;8.27;;;7.03;;
7583;SDS011;3833;41.764;26.204;2023-03-21T04:51:52;9.47;;;7.10;;
7583;SDS011;3833;41.764;26.204;2023-03-21T04:54:19;8.53;;;6.90;;
7583;SDS011;3833;41.764;26.204;2023-03-21T04:56:46;7.20;;;6.27;;
7583;SDS011;3833;41.764;26.204;2023-03-21T04:59:14;8.00;;;7.20;;
7583;SDS011;3833;41.764;26.204;2023-03-21T05:01:42;9.33;;;7.07;;
7583;SDS011;3833;41.764;26.204;2023-03-21T05:04:10;11.13;;;8.27;;
7583;SDS011;3833;41.764;26.204;2023-03-21T05:06:39;8.03;;;7.20;;
7583;SDS011;3833;41.764;26.204;2023-03-21T05:09:08;8.73;;;7.00;;
7583;SDS011;3833;41.764;26.204;2023-03-21T05:11:36;8.20;;;7.20;;
7583;SDS011;3833;41.764;26.204;2023-03-21T05:14:05;15.07;;;10.50;;
7583;SDS011;3833;41.764;26.204;2023-03-21T05:16:34;28.70;;;19.80;;
7583;SDS011;3833;41.764;26.204;2023-03-21T05:19:03;34.17;;;22.43;;
7583;SDS011;3833;41.764;26.204;2023-03-21T05:21:32;43.73;;;26.43;;
7583;SDS011;3833;41.764;26.204;2023-03-21T05:24:06;41.67;;;26.73;;
7583;SDS011;3833;41.764;26.204;2023-03-21T05:26:36;44.13;;;26.83;;
7583;SDS011;3833;41.764;26.204;2023-03-21T05:29:03;38.20;;;26.40;;
7583;SDS011;3833;41.764;26.204;2023-03-21T05:31:31;41.17;;;27.00;;
7583;SDS011;3833;41.764;26.204;2023-03-21T05:33:58;45.00;;;28.63;;
7583;SDS011;3833;41.764;26.204;2023-03-21T05:36:25;44.90;;;28.80;;
7583;SDS011;3833;41.764;26.204;2023-03-21T05:38:53;40.70;;;27.33;;
7583;SDS011;3833;41.764;26.204;2023-03-21T05:41:20;42.90;;;28.57;;
7583;SDS011;3833;41.764;26.204;2023-03-21T05:43:47;42.53;;;27.70;;
7583;SDS011;3833;41.764;26.204;2023-03-21T05:46:14;45.33;;;28.67;;
7583;SDS011;3833;41.764;26.204;2023-03-21T05:48:41;43.37;;;26.50;;
7583;SDS011;3833;41.764;26.204;2023-03-21T05:51:08;39.83;;;27.90;;
7583;SDS011;3833;41.764;26.204;2023-03-21T05:53:35;40.90;;;29.00;;
7583;SDS011;3833;41.764;26.204;2023-03-21T05:56:04;45.13;;;28.20;;
7583;SDS011;3833;41.764;26.204;2023-03-21T05:58:32;38.60;;;26.47;;
7583;SDS011;3833;41.764;26.204;2023-03-21T06:00:59;42.23;;;28.33;;
7583;SDS011;3833;41.764;26.204;2023-03-21T06:03:26;42.57;;;28.27;;
7583;SDS011;3833;41.764;26.204;2023-03-21T06:05:54;39.23;;;28.43;;
7583;SDS011;3833;41.764;26.204;2023-03-21T06:08:20;44.40;;;30.50;;
7583;SDS011;3833;41.764;26.204;2023-03-21T06:10:47;54.27;;;36.47;;
7583;SDS011;3833;41.764;26.204;2023-03-21T06:13:16;38.77;;;29.07;;
7583;SDS011;3833;41.764;26.204;2023-03-21T06:15:43;39.30;;;27.60;;
7583;SDS011;3833;41.764;26.204;2023-03-21T06:18:10;43.00;;;27.43;;
7583;SDS011;3833;41.764;26.204;2023-03-21T06:20:37;43.33;;;28.80;;
7583;SDS011;3833;41.764;26.204;2023-03-21T06:23:04;40.50;;;29.53;;
7583;SDS011;3833;41.764;26.204;2023-03-21T06:25:31;36.50;;;27.27;;
7583;SDS011;3833;41.764;26.204;2023-03-21T06:27:58;40.53;;;26.77;;
7583;SDS011;3833;41.764;26.204;2023-03-21T06:30:26;36.37;;;24.43;;
7583;SDS011;3833;41.764;26.204;2023-03-21T06:32:53;37.77;;;25.73;;
7583;SDS011;3833;41.764;26.204;2023-03-21T06:35:20;34.00;;;23.20;;
7583;SDS011;3833;41.764;26.204;2023-03-21T06:37:47;33.20;;;23.63;;
7583;SDS011;3833;41.764;26.204;2023-03-21T06:40:15;30.53;;;21.80;;
7583;SDS011;3833;41.764;26.204;2023-03-21T06:42:43;37.13;;;22.50;;
7583;SDS011;3833;41.764;26.204;2023-03-21T06:45:10;34.90;;;24.00;;
7583;SDS011;3833;41.764;26.204;2023-03-21T06:47:38;35.63;;;25.50;;
7583;SDS011;3833;41.764;26.204;2023-03-21T06:50:06;26.73;;;20.70;;
7583;SDS011;3833;41.764;26.204;2023-03-21T06:52:33;33.50;;;21.60;;
7583;SDS011;3833;41.764;26.204;2023-03-21T06:55:00;32.03;;;21.70;;
7583;SDS011;3833;41.764;26.204;2023-03-21T06:57:27;36.17;;;22.13;;
7583;SDS011;3833;41.764;26.204;2023-03-21T06:59:54;31.87;;;22.07;;
7583;SDS011;3833;41.764;26.204;2023-03-21T07:02:21;29.07;;;22.97;;
7583;SDS011;3833;41.764;26.204;2023-03-21T07:04:49;27.10;;;20.20;;
7583;SDS011;3833;41.764;26.204;2023-03-21T07:07:16;25.27;;;19.63;;
7583;SDS011;3833;41.764;26.204;2023-03-21T07:09:43;31.57;;;21.53;;
7583;SDS011;3833;41.764;26.204;2023-03-21T07:12:10;43.10;;;33.60;;
7583;SDS011;3833;41.764;26.204;2023-03-21T07:14:37;31.77;;;24.23;;
7583;SDS011;3833;41.764;26.204;2023-03-21T07:17:04;28.97;;;21.37;;
7583;SDS011;3833;41.764;26.204;2023-03-21T07:19:30;33.50;;;22.20;;
7583;SDS011;3833;41.764;26.204;2023-03-21T07:21:59;30.00;;;22.53;;
7583;SDS011;3833;41.764;26.204;2023-03-21T07:24:26;28.30;;;21.87;;
7583;SDS011;3833;41.764;26.204;2023-03-21T07:26:52;32.73;;;23.63;;
7583;SDS011;3833;41.764;26.204;2023-03-21T07:29:20;33.53;;;21.57;;
7583;SDS011;3833;41.764;26.204;2023-03-21T07:31:47;29.07;;;21.50;;
7583;SDS011;3833;41.764;26.204;2023-03-21T07:34:14;29.60;;;22.33;;
7583;SDS011;3833;41.764;26.204;2023-03-21T07:36:43;29.10;;;21.13;;
7583;SDS011;3833;41.764;26.204;2023-03-21T07:39:11;30.40;;;23.60;;
7583;SDS011;3833;41.764;26.204;2023-03-21T07:41:38;30.60;;;22.90;;
7583;SDS011;3833;41.764;26.204;2023-03-21T07:44:05;31.43;;;23.20;;
7583;SDS011;3833;41.764;26.204;2023-03-21T07:46:31;28.83;;;21.57;;
7583;SDS011;3833;41.764;26.204;2023-03-21T07:48:58;32.30;;;22.13;;
7583;SDS011;3833;41.764;26.204;2023-03-21T07:51:25;32.13;;;22.07;;
7583;SDS011;3833;41.764;26.204;2023-03-21T07:53:52;27.80;;;20.60;;
7583;SDS011;3833;41.764;26.204;2023-03-21T07:56:20;26.73;;;20.27;;
7583;SDS011;3833;41.764;26.204;2023-03-21T07:58:47;26.43;;;18.57;;
7583;SDS011;3833;41.764;26.204;2023-03-21T08:01:14;27.97;;;19.30;;
7583;SDS011;3833;41.764;26.204;2023-03-21T08:03:40;22.70;;;17.50;;
7583;SDS011;3833;41.764;26.204;2023-03-21T08:06:08;26.33;;;19.97;;
7583;SDS011;3833;41.764;26.204;2023-03-21T08:08:35;20.93;;;17.47;;
7583;SDS011;3833;41.764;26.204;2023-03-21T08:11:02;23.47;;;18.53;;
7583;SDS011;3833;41.764;26.204;2023-03-21T08:13:31;25.73;;;17.60;;
7583;SDS011;3833;41.764;26.204;2023-03-21T08:15:58;31.73;;;18.03;;
7583;SDS011;3833;41.764;26.204;2023-03-21T08:18:25;26.23;;;17.97;;
7583;SDS011;3833;41.764;26.204;2023-03-21T08:20:52;20.90;;;17.43;;
7583;SDS011;3833;41.764;26.204;2023-03-21T08:23:20;23.60;;;17.27;;
7583;SDS011;3833;41.764;26.204;2023-03-21T08:25:49;19.83;;;15.73;;
7583;SDS011;3833;41.764;26.204;2023-03-21T08:28:17;18.70;;;15.00;;
7583;SDS011;3833;41.764;26.204;2023-03-21T08:30:45;26.03;;;16.07;;
7583;SDS011;3833;41.764;26.204;2023-03-21T08:33:13;19.10;;;15.43;;
7583;SDS011;3833;41.764;26.204;2023-03-21T08:35:41;27.23;;;17.17;;
7583;SDS011;3833;41.764;26.204;2023-03-21T08:38:08;26.07;;;17.57;;
7583;SDS011;3833;41.764;26.204;2023-03-21T08:40:35;25.27;;;17.13;;
7583;SDS011;3833;41.764;26.204;2023-03-21T08:43:03;25.10;;;17.50;;
7583;SDS011;3833;41.764;26.204;2023-03-21T08:45:30;25.23;;;15.80;;
7583;SDS011;3833;41.764;26.204;2023-03-21T08:47:58;18.17;;;14.23;;
7583;SDS011;3833;41.764;26.204;2023-03-21T08:50:25;23.73;;;17.77;;
7583;SDS011;3833;41.764;26.204;2023-03-21T08:52:53;26.10;;;16.17;;
7583;SDS011;3833;41.764;26.204;2023-03-21T08:55:20;22.73;;;15.60;;
7583;SDS011;3833;41.764;26.204;2023-03-21T08:57:47;23.67;;;15.83;;
7583;SDS011;3833;41.764;26.204;2023-03-21T09:00:15;20.27;;;15.47;;
7583;SDS011;3833;41.764;26.204;2023-03-21T09:02:44;20.67;;;14.60;;
7583;SDS011;3833;41.764;26.204;2023-03-21T09:05:15;20.37;;;14.17;;
7583;SDS011;3833;41.764;26.204;2023-03-21T09:07:42;29.10;;;16.57;;
7583;SDS011;3833;41.764;26.204;2023-03-21T09:10:11;25.13;;;14.90;;
7583;SDS011;3833;41.764;26.204;2023-03-21T09:12:40;19.80;;;15.37;;
7583;SDS011;3833;41.764;26.204;2023-03-21T09:15:08;22.17;;;16.07;;
7583;SDS011;3833;41.764;26.204;2023-03-21T09:17:36;20.83;;;14.97;;
7583;SDS011;3833;41.764;26.204;2023-03-21T09:20:08;22.03;;;14.13;;
7583;SDS011;3833;41.764;26.204;2023-03-21T09:22:44;21.40;;;15.00;;
7583;SDS011;3833;41.764;26.204;2023-03-21T09:25:11;24.80;;;16.73;;
7583;SDS011;3833;41.764;26.204;2023-03-21T09:27:39;19.70;;;14.83;;
7583;SDS011;3833;41.764;26.204;2023-03-21T09:30:07;70.90;;;52.30;;
7583;SDS011;3833;41.764;26.204;2023-03-21T09:32:35;34.83;;;22.70;;
7583;SDS011;3833;41.764;26.204;2023-03-21T09:35:02;25.10;;;18.20;;
7583;SDS011;3833;41.764;26.204;2023-03-21T09:37:31;19.97;;;14.87;;
7583;SDS011;3833;41.764;26.204;2023-03-21T09:39:59;23.80;;;14.83;;
7583;SDS011;3833;41.764;26.204;2023-03-21T09:42:29;21.40;;;15.20;;
7583;SDS011;3833;41.764;26.204;2023-03-21T09:45:06;19.70;;;13.90;;
7583;SDS011;3833;41.764;26.204;2023-03-21T09:47:40;20.70;;;13.67;;
7583;SDS011;3833;41.764;26.204;2023-03-21T09:50:17;22.70;;;15.00;;
7583;SDS011;3833;41.764;26.204;2023-03-21T09:52:48;17.67;;;13.23;;
7583;SDS011;3833;41.764;26.204;2023-03-21T09:55:23;22.30;;;14.10;;
7583;SDS011;3833;41.764;26.204;2023-03-21T09:57:58;18.77;;;14.17;;
7583;SDS011;3833;41.764;26.204;2023-03-21T10:00:33;22.57;;;14.47;;
7583;SDS011;3833;41.764;26.204;2023-03-21T10:03:07;19.43;;;13.07;;
7583;SDS011;3833;41.764;26.204;2023-03-21T10:05:43;17.30;;;13.80;;
7583;SDS011;3833;41.764;26.204;2023-03-21T10:08:15;22.27;;;14.13;;
7583;SDS011;3833;41.764;26.204;2023-03-21T10:10:49;23.23;;;14.00;;
7583;SDS011;3833;41.764;26.204;2023-03-21T10:13:18;16.27;;;14.10;;
7583;SDS011;3833;41.764;26.204;2023-03-21T10:15:50;20.03;;;15.50;;
7583;SDS011;3833;41.764;26.204;2023-03-21T10:18:23;21.70;;;15.47;;
7583;SDS011;3833;41.764;26.204;2023-03-21T10:20:52;21.93;;;15.67;;
7583;SDS011;3833;41.764;26.204;2023-03-21T10:23:20;21.90;;;13.83;;
7583;SDS011;3833;41.764;26.204;2023-03-21T10:25:53;19.87;;;15.10;;
7583;SDS011;3833;41.764;26.204;2023-03-21T10:28:23;22.30;;;16.13;;
7583;SDS011;3833;41.764;26.204;2023-03-21T10:30:52;22.50;;;16.23;;
7583;SDS011;3833;41.764;26.204;2023-03-21T10:33:22;23.87;;;15.57;;
7583;SDS011;3833;41.764;26.204;2023-03-21T10:35:52;26.90;;;15.83;;
7583;SDS011;3833;41.764;26.204;2023-03-21T10:38:22;20.47;;;15.67;;
7583;SDS011;3833;41.764;26.204;2023-03-21T10:40:50;21.30;;;16.30;;
7583;SDS011;3833;41.764;26.204;2023-03-21T10:43:28;22.40;;;15.83;;
7583;SDS011;3833;41.764;26.204;2023-03-21T10:45:58;18.23;;;12.87;;
7583;SDS011;3833;41.764;26.204;2023-03-21T10:48:33;16.87;;;11.60;;
7583;SDS011;3833;41.764;26.204;2023-03-21T10:51:02;17.27;;;10.90;;
7583;SDS011;3833;41.764;26.204;2023-03-21T10:53:34;12.40;;;10.13;;
7583;SDS011;3833;41.764;26.204;2023-03-21T10:56:05;11.67;;;10.23;;
7583;SDS011;3833;41.764;26.204;2023-03-21T10:58:37;16.03;;;9.83;;
7583;SDS011;3833;41.764;26.204;2023-03-21T11:01:10;15.30;;;9.47;;
7583;SDS011;3833;41.764;26.204;2023-03-21T11:03:41;19.37;;;12.00;;
7583;SDS011;3833;41.764;26.204;2023-03-21T11:06:12;18.23;;;13.47;;
7583;SDS011;3833;41.764;26.204;2023-03-21T11:08:43;40.07;;;24.30;;
7583;SDS011;3833;41.764;26.204;2023-03-21T11:11:18;31.63;;;20.23;;
7583;SDS011;3833;41.764;26.204;2023-03-21T11:13:54;20.80;;;14.37;;
7583;SDS011;3833;41.764;26.204;2023-03-21T11:16:23;15.63;;;8.90;;
7583;SDS011;3833;41.764;26.204;2023-03-21T11:18:55;19.37;;;11.87;;
7583;SDS011;3833;41.764;26.204;2023-03-21T11:21:26;32.90;;;30.13;;
7583;SDS011;3833;41.764;26.204;2023-03-21T11:24:00;33.00;;;30.03;;
7583;SDS011;3833;41.764;26.204;2023-03-21T11:26:29;33.60;;;30.70;;
7583;SDS011;3833;41.764;26.204;2023-03-21T11:29:01;17.47;;;11.17;;
7583;SDS011;3833;41.764;26.204;2023-03-21T11:31:37;44.80;;;19.80;;
7583;SDS011;3833;41.764;26.204;2023-03-21T11:34:06;15.00;;;10.40;;
7583;SDS011;3833;41.764;26.204;2023-03-21T11:36:34;16.03;;;10.30;;
7583;SDS011;3833;41.764;26.204;2023-03-21T11:39:14;17.80;;;10.90;;
7583;SDS011;3833;41.764;26.204;2023-03-21T11:41:53;11.93;;;8.50;;
7583;SDS011;3833;41.764;26.204;2023-03-21T11:44:28;15.43;;;10.07;;
7583;SDS011;3833;41.764;26.204;2023-03-21T11:46:57;12.57;;;8.57;;
7583;SDS011;3833;41.764;26.204;2023-03-21T11:49:24;15.93;;;9.37;;
7583;SDS011;3833;41.764;26.204;2023-03-21T11:54:50;14.57;;;10.07;;
7583;SDS011;3833;41.764;26.204;2023-03-21T11:57:30;13.60;;;9.33;;
7583;SDS011;3833;41.764;26.204;2023-03-21T12:00:05;12.13;;;9.90;;
7583;SDS011;3833;41.764;26.204;2023-03-21T12:02:50;15.67;;;10.20;;
7583;SDS011;3833;41.764;26.204;2023-03-21T12:05:34;15.87;;;9.20;;
7583;SDS011;3833;41.764;26.204;2023-03-21T12:08:05;11.77;;;8.83;;
7583;SDS011;3833;41.764;26.204;2023-03-21T12:10:40;16.37;;;9.27;;
7583;SDS011;3833;41.764;26.204;2023-03-21T12:13:15;26.50;;;11.33;;
7583;SDS011;3833;41.764;26.204;2023-03-21T12:15:57;11.70;;;8.70;;
7583;SDS011;3833;41.764;26.204;2023-03-21T12:18:41;12.03;;;8.60;;
7583;SDS011;3833;41.764;26.204;2023-03-21T12:21:18;11.97;;;9.13;;
7583;SDS011;3833;41.764;26.204;2023-03-21T12:23:53;9.43;;;8.17;;
7583;SDS011;3833;41.764;26.204;2023-03-21T12:26:27;10.47;;;8.57;;
7583;SDS011;3833;41.764;26.204;2023-03-21T12:29:08;14.47;;;9.10;;
7583;SDS011;3833;41.764;26.204;2023-03-21T12:31:52;15.10;;;8.37;;
7583;SDS011;3833;41.764;26.204;2023-03-21T12:34:30;12.00;;;9.00;;
7583;SDS011;3833;41.764;26.204;2023-03-21T12:37:15;12.20;;;8.40;;
7583;SDS011;3833;41.764;26.204;2023-03-21T12:39:51;10.73;;;8.67;;
7583;SDS011;3833;41.764;26.204;2023-03-21T12:42:29;10.77;;;8.30;;
7583;SDS011;3833;41.764;26.204;2023-03-21T12:45:08;15.50;;;8.70;;
7583;SDS011;3833;41.764;26.204;2023-03-21T12:47:41;12.50;;;7.90;;
7583;SDS011;3833;41.764;26.204;2023-03-21T12:50:13;12.13;;;8.70;;
7583;SDS011;3833;41.764;26.204;2023-03-21T12:52:43;15.17;;;9.47;;
7583;SDS011;3833;41.764;26.204;2023-03-21T12:55:15;12.10;;;8.50;;
7583;SDS011;3833;41.764;26.204;2023-03-21T12:57:47;15.87;;;9.03;;
7583;SDS011;3833;41.764;26.204;2023-03-21T13:00:19;10.50;;;8.70;;
7583;SDS011;3833;41.764;26.204;2023-03-21T13:02:50;12.90;;;9.10;;
7583;SDS011;3833;41.764;26.204;2023-03-21T13:05:24;10.73;;;8.80;;
7583;SDS011;3833;41.764;26.204;2023-03-21T13:07:55;12.93;;;8.77;;
7583;SDS011;3833;41.764;26.204;2023-03-21T13:10:26;11.63;;;8.60;;
7583;SDS011;3833;41.764;26.204;2023-03-21T13:13:04;12.07;;;8.47;;
7583;SDS011;3833;41.764;26.204;2023-03-21T13:15:51;13.20;;;8.60;;
7583;SDS011;3833;41.764;26.204;2023-03-21T13:18:31;17.07;;;9.17;;
7583;SDS011;3833;41.764;26.204;2023-03-21T13:21:04;7.93;;;7.17;;
7583;SDS011;3833;41.764;26.204;2023-03-21T13:23:39;9.77;;;8.80;;
7583;SDS011;3833;41.764;26.204;2023-03-21T13:26:07;10.40;;;8.13;;
7583;SDS011;3833;41.764;26.204;2023-03-21T13:28:37;11.77;;;7.87;;
7583;SDS011;3833;41.764;26.204;2023-03-21T13:31:19;10.47;;;8.20;;
7583;SDS011;3833;41.764;26.204;2023-03-21T13:33:49;16.47;;;10.53;;
7583;SDS011;3833;41.764;26.204;2023-03-21T13:36:21;12.67;;;8.70;;
7583;SDS011;3833;41.764;26.204;2023-03-21T13:38:51;12.93;;;8.90;;
7583;SDS011;3833;41.764;26.204;2023-03-21T13:41:29;9.90;;;8.23;;
7583;SDS011;3833;41.764;26.204;2023-03-21T13:44:05;12.77;;;8.03;;
7583;SDS011;3833;41.764;26.204;2023-03-21T13:46:35;11.17;;;8.37;;
7583;SDS011;3833;41.764;26.204;2023-03-21T13:49:24;16.10;;;9.47;;
7583;SDS011;3833;41.764;26.204;2023-03-21T13:51:52;14.37;;;11.03;;
7583;SDS011;3833;41.764;26.204;2023-03-21T13:54:28;11.73;;;8.80;;
7583;SDS011;3833;41.764;26.204;2023-03-21T13:57:22;14.47;;;9.00;;
7583;SDS011;3833;41.764;26.204;2023-03-21T14:00:14;29.60;;;27.27;;
7583;SDS011;3833;41.764;26.204;2023-03-21T14:02:52;34.23;;;32.33;;
7583;SDS011;3833;41.764;26.204;2023-03-21T14:05:24;33.93;;;31.73;;
7583;SDS011;3833;41.764;26.204;2023-03-21T14:07:54;35.73;;;33.37;;
7583;SDS011;3833;41.764;26.204;2023-03-21T14:10:25;11.97;;;8.70;;
7583;SDS011;3833;41.764;26.204;2023-03-21T14:12:56;11.93;;;8.20;;
7583;SDS011;3833;41.764;26.204;2023-03-21T14:15:25;13.33;;;8.50;;
7583;SDS011;3833;41.764;26.204;2023-03-21T14:17:55;10.73;;;8.17;;
7583;SDS011;3833;41.764;26.204;2023-03-21T14:20:27;12.43;;;8.90;;
7583;SDS011;3833;41.764;26.204;2023-03-21T14:22:55;11.73;;;8.13;;
7583;SDS011;3833;41.764;26.204;2023-03-21T14:25:23;10.37;;;8.33;;
7583;SDS011;3833;41.764;26.204;2023-03-21T14:27:52;11.43;;;8.97;;
7583;SDS011;3833;41.764;26.204;2023-03-21T14:30:22;12.13;;;9.13;;
7583;SDS011;3833;41.764;26.204;2023-03-21T14:32:52;9.50;;;8.07;;
7583;SDS011;3833;41.764;26.204;2023-03-21T14:35:23;9.97;;;8.30;;
7583;SDS011;3833;41.764;26.204;2023-03-21T14:37:55;16.80;;;15.40;;
7583;SDS011;3833;41.764;26.204;2023-03-21T14:40:26;19.07;;;17.37;;
7583;SDS011;3833;41.764;26.204;2023-03-21T14:42:53;32.17;;;30.27;;
7583;SDS011;3833;41.764;26.204;2023-03-21T14:45:22;31.57;;;29.77;;
7583;SDS011;3833;41.764;26.204;2023-03-21T14:47:54;11.17;;;7.47;;
7583;SDS011;3833;41.764;26.204;2023-03-21T14:50:23;11.80;;;7.70;;
7583;SDS011;3833;41.764;26.204;2023-03-21T14:52:57;10.40;;;7.80;;
7583;SDS011;3833;41.764;26.204;2023-03-21T14:55:25;10.37;;;7.37;;
7583;SDS011;3833;41.764;26.204;2023-03-21T14:57:52;7.60;;;6.90;;
7583;SDS011;3833;41.764;26.204;2023-03-21T15:00:22;10.70;;;7.57;;
7583;SDS011;3833;41.764;26.204;2023-03-21T15:02:52;9.37;;;7.50;;
7583;SDS011;3833;41.764;26.204;2023-03-21T15:05:22;8.07;;;7.20;;
7583;SDS011;3833;41.764;26.204;2023-03-21T15:07:53;12.70;;;8.07;;
7583;SDS011;3833;41.764;26.204;2023-03-21T15:10:22;11.73;;;8.40;;